Time;durP1;ratioP1;P1;durP2;ratioP2;P2;SDS_P1;SDS_P2;PMS_P1;PMS_P2;Temp;Humidity;BMP_temperature;BMP_pressure;BME280_temperature;BME280_humidity;BME280_pressure;Samples;Min_cycle;Max_cycle;Signal;HPM_P1;HPM_P2
2022/12/05 00:01:37;;;;;;;6.97;3.53;;;0.00;99.90;;;;;;4933454;28;20058;-73
2022/12/05 00:04:06;;;;;;;7.95;4.03;;;0.10;99.90;;;;;;4933403;29;20402;-73
2022/12/05 00:06:33;;;;;;;7.00;3.88;;;0.00;99.90;;;;;;4933521;29;20028;-73
2022/12/05 00:09:00;;;;;;;5.63;2.50;;;0.50;99.90;;;;;;4940542;29;20497;-72
2022/12/05 00:11:28;;;;;;;9.98;3.80;;;0.20;99.90;;;;;;4933251;29;20036;-72
2022/12/05 00:13:55;;;;;;;8.90;4.88;;;0.20;99.90;;;;;;4932876;29;20028;-73
2022/12/05 00:16:23;;;;;;;16.92;4.45;;;0.10;99.90;;;;;;4933315;29;20023;-72
2022/12/05 00:18:49;;;;;;;7.65;3.75;;;;;;;;;;4932864;29;20031;-73
2022/12/05 00:21:21;;;;;;;10.52;4.47;;;0.00;99.90;;;;;;4933156;29;20439;-73
2022/12/05 00:23:48;;;;;;;3.33;2.38;;;-0.10;99.90;;;;;;4933030;29;20030;-73
2022/12/05 00:26:14;;;;;;;6.68;2.83;;;0.00;99.90;;;;;;4933107;29;20024;-73
2022/12/05 00:28:40;;;;;;;2.28;2.10;;;;;;;;;;4932875;29;20024;-73
2022/12/05 00:31:11;;;;;;;3.20;1.95;;;-0.40;99.90;;;;;;4932906;29;20054;-72
2022/12/05 00:33:37;;;;;;;1.98;1.73;;;-0.20;99.90;;;;;;4932891;29;20039;-73
2022/12/05 00:36:05;;;;;;;4.38;2.00;;;-0.20;99.90;;;;;;4932829;29;20043;-74
2022/12/05 00:38:31;;;;;;;4.53;3.05;;;;;;;;;;4932757;29;20031;-73
2022/12/05 00:41:05;;;;;;;2.22;1.38;;;0.20;99.90;;;;;;4932743;29;20046;-73
2022/12/05 00:43:31;;;;;;;3.70;1.75;;;-0.40;99.90;;;;;;4932290;29;20031;-73
2022/12/05 00:46:03;;;;;;;2.40;1.33;;;-0.10;99.90;;;;;;4932666;29;20421;-73
2022/12/05 00:48:30;;;;;;;2.85;2.15;;;-0.10;99.90;;;;;;4920660;29;20505;-73
2022/12/05 00:51:01;;;;;;;3.35;1.92;;;0.00;99.90;;;;;;4932425;29;20484;-73
2022/12/05 00:53:27;;;;;;;5.40;3.50;;;0.00;99.90;;;;;;4932887;29;20047;-73
2022/12/05 00:55:53;;;;;;;1.85;1.67;;;;;;;;;;4932977;29;20630;-74
2022/12/05 00:58:19;;;;;;;4.35;2.05;;;;;;;;;;4932787;29;20055;-73
2022/12/05 01:00:45;;;;;;;1.50;1.40;;;;;;;;;;4931994;29;20028;-73
2022/12/05 01:03:11;;;;;;;1.35;0.70;;;;;;;;;;4932316;29;20055;-73
2022/12/05 01:05:37;;;;;;;2.30;1.17;;;;;;;;;;4932036;29;20028;-73
2022/12/05 01:08:02;;;;;;;1.27;1.17;;;-0.20;99.90;;;;;;4932290;29;20136;-72
2022/12/05 01:10:28;;;;;;;1.98;1.77;;;-0.30;99.90;;;;;;4931960;29;20090;-73
2022/12/05 01:12:54;;;;;;;0.70;0.70;;;;;;;;;;4932324;29;20024;-73
2022/12/05 01:15:20;;;;;;;3.15;1.77;;;;;;;;;;4931635;29;20019;-73
2022/12/05 01:17:46;;;;;;;2.50;1.58;;;;;;;;;;4932038;29;20028;-73
2022/12/05 01:20:12;;;;;;;5.18;2.20;;;-0.40;99.90;;;;;;4931892;29;20040;-73
2022/12/05 01:22:38;;;;;;;1.58;1.48;;;;;;;;;;4932395;29;20024;-72
2022/12/05 01:25:04;;;;;;;2.88;1.95;;;-0.50;99.90;;;;;;4932243;29;20163;-73
2022/12/05 01:27:30;;;;;;;2.17;1.63;;;;;;;;;;4941194;29;20028;-73
2022/12/05 01:29:56;;;;;;;2.63;2.33;;;-0.40;99.90;;;;;;4931720;29;20043;-73
2022/12/05 01:32:22;;;;;;;8.45;2.22;;;-0.40;99.90;;;;;;4932143;29;20043;-73
2022/12/05 01:34:48;;;;;;;1.83;1.20;;;-0.40;99.90;;;;;;4931697;29;20598;-73
2022/12/05 01:37:14;;;;;;;2.22;2.03;;;;;;;;;;4931690;29;20497;-73
2022/12/05 01:39:40;;;;;;;1.88;1.45;;;;;;;;;;4931470;29;20036;-73
2022/12/05 01:42:06;;;;;;;4.13;2.40;;;;;;;;;;4932040;29;20058;-73
2022/12/05 01:44:32;;;;;;;1.52;1.27;;;;;;;;;;4931087;29;20042;-72
2022/12/05 01:46:57;;;;;;;3.55;1.80;;;-0.30;99.90;;;;;;4931426;29;20091;-73
2022/12/05 01:49:30;;;;;;;1.42;1.05;;;-0.40;99.90;;;;;;4931434;29;20447;-73
2022/12/05 01:52:01;;;;;;;1.83;1.38;;;-0.40;99.90;;;;;;4931502;29;20655;-73
2022/12/05 01:54:27;;;;;;;7.68;1.88;;;-0.60;99.90;;;;;;4931143;29;20074;-72
2022/12/05 01:57:01;;;;;;;1.67;1.45;;;-0.50;99.90;;;;;;4931698;29;20571;-73
2022/12/05 01:59:29;;;;;;;3.00;1.42;;;-0.60;99.90;;;;;;4930930;29;20063;-73
2022/12/05 02:01:55;;;;;;;6.18;2.03;;;;;;;;;;4931298;29;20110;-73
2022/12/05 02:04:21;;;;;;;0.63;0.63;;;-0.50;99.90;;;;;;4931377;29;20027;-73
2022/12/05 02:06:47;;;;;;;2.05;1.75;;;;;;;;;;4931435;29;20122;-73
2022/12/05 02:09:13;;;;;;;2.90;2.15;;;;;;;;;;4945922;29;20450;-73
2022/12/05 02:11:53;;;;;;;2.33;1.95;;;-0.50;99.90;;;;;;4931457;29;20050;-72
2022/12/05 02:14:24;;;;;;;1.40;1.30;;;-0.50;99.90;;;;;;4930061;29;20042;-73
2022/12/05 02:17:16;;;;;;;1.38;1.20;;;-0.20;99.90;;;;;;4931098;29;20418;-73
2022/12/05 02:20:06;;;;;;;1.15;1.15;;;-0.70;99.90;;;;;;4922150;29;20028;-73
2022/12/05 02:22:46;;;;;;;0.90;0.90;;;-0.30;99.90;;;;;;4931338;29;20039;-73
2022/12/05 02:25:36;;;;;;;1.70;1.38;;;-0.40;99.90;;;;;;4931270;29;20037;-73
2022/12/05 02:28:08;;;;;;;3.72;1.67;;;-0.30;99.90;;;;;;4930985;29;20063;-73
2022/12/05 02:30:55;;;;;;;1.88;1.15;;;-0.30;99.90;;;;;;4930750;29;20043;-73
2022/12/05 02:33:32;;;;;;;2.03;1.20;;;-0.40;99.90;;;;;;4929171;29;20056;-73
2022/12/05 02:36:02;;;;;;;1.90;1.65;;;-0.40;99.90;;;;;;4928105;29;20036;-73
2022/12/05 02:38:46;;;;;;;4.32;1.17;;;-0.50;99.90;;;;;;4931189;29;20054;-73
2022/12/05 02:41:18;;;;;;;2.38;2.03;;;-0.50;99.90;;;;;;4930757;29;20478;-73
2022/12/05 02:43:58;;;;;;;4.00;2.75;;;-0.70;99.90;;;;;;4961495;28;20405;-72
2022/12/05 02:46:27;;;;;;;2.75;2.17;;;-1.10;99.90;;;;;;4930884;29;20020;-73
2022/12/05 02:49:01;;;;;;;3.10;2.25;;;-0.70;99.90;;;;;;4961538;28;20063;-73
2022/12/05 02:51:32;;;;;;;1.00;1.00;;;-0.70;99.90;;;;;;4930622;29;20526;-73
2022/12/05 02:54:02;;;;;;;2.67;2.08;;;-0.70;99.90;;;;;;4931049;29;20058;-73
2022/12/05 02:56:30;;;;;;;2.20;1.55;;;-0.70;99.90;;;;;;4931120;29;20370;-73
2022/12/05 02:58:56;;;;;;;1.05;1.02;;;;;;;;;;4930804;29;20055;-73
2022/12/05 03:01:26;;;;;;;9.10;4.65;;;-0.70;99.90;;;;;;4930888;29;20024;-72
2022/12/05 03:03:52;;;;;;;3.10;2.25;;;;;;;;;;4930603;29;20720;-73
2022/12/05 03:06:27;;;;;;;1.90;1.50;;;-0.80;99.90;;;;;;4945973;28;20020;-73
2022/12/05 03:09:05;;;;;;;1.23;1.15;;;-0.60;99.90;;;;;;4930755;29;20036;-73
2022/12/05 03:11:39;;;;;;;2.13;1.45;;;-0.70;99.90;;;;;;4930249;29;20044;-73
2022/12/05 03:14:11;;;;;;;5.50;1.85;;;-0.70;99.90;;;;;;4929930;29;20031;-73
2022/12/05 03:16:45;;;;;;;1.80;1.67;;;-0.30;99.90;;;;;;4930975;29;20042;-73
2022/12/05 03:19:23;;;;;;;2.63;2.25;;;-0.50;99.90;;;;;;4930564;29;20640;-73
2022/12/05 03:22:07;;;;;;;1.58;1.15;;;-0.60;99.90;;;;;;4930975;29;20043;-73
2022/12/05 03:24:36;;;;;;;3.78;0.93;;;-0.50;99.90;;;;;;4941654;28;20835;-73
2022/12/05 03:27:26;;;;;;;3.78;2.40;;;-0.60;99.90;;;;;;4934127;28;20036;-73
2022/12/05 03:30:00;;;;;;;5.55;2.75;;;-0.70;99.90;;;;;;4923043;29;20028;-73
2022/12/05 03:32:26;;;;;;;6.45;3.33;;;;;;;;;;4933961;29;20046;-72
2022/12/05 03:35:16;;;;;;;4.60;1.98;;;-0.60;99.90;;;;;;4933636;29;20023;-73
2022/12/05 03:37:52;;;;;;;1.00;0.90;;;-0.60;99.90;;;;;;4934207;29;20087;-73
2022/12/05 03:40:36;;;;;;;5.57;2.88;;;-0.70;99.90;;;;;;4933234;29;20023;-73
2022/12/05 03:43:38;;;;;;;4.13;2.13;;;-0.80;99.90;;;;;;4933687;29;20071;-73
2022/12/05 03:46:04;;;;;;;3.17;1.92;;;;;;;;;;4921809;29;20016;-73
2022/12/05 03:48:42;;;;;;;4.28;2.33;;;-0.60;99.90;;;;;;4933624;29;20034;-73
2022/12/05 03:51:11;;;;;;;0.95;0.75;;;-0.60;99.90;;;;;;4933849;29;20044;-72
2022/12/05 03:53:46;;;;;;;2.58;1.77;;;-0.60;99.90;;;;;;4933536;29;20398;-72
2022/12/05 03:56:18;;;;;;;2.65;2.05;;;-0.60;99.90;;;;;;4933735;29;20035;-73
2022/12/05 03:58:52;;;;;;;1.63;1.52;;;-0.80;99.90;;;;;;4933550;29;20570;-72
2022/12/05 04:01:21;;;;;;;1.70;0.82;;;-0.80;99.90;;;;;;4933902;29;20152;-72
2022/12/05 04:03:53;;;;;;;7.10;2.08;;;-0.70;99.90;;;;;;4933623;29;20032;-72
2022/12/05 04:06:30;;;;;;;4.30;3.80;;;-0.90;99.90;;;;;;4933192;29;20039;-73
2022/12/05 04:09:01;;;;;;;7.55;4.63;;;-0.80;99.90;;;;;;4933684;29;20031;-72
2022/12/05 04:11:31;;;;;;;9.25;4.50;;;-0.70;99.90;;;;;;4932842;29;20652;-73
2022/12/05 04:14:06;;;;;;;6.28;2.90;;;-0.80;99.90;;;;;;4932806;29;20106;-72
2022/12/05 04:17:02;;;;;;;3.92;2.53;;;-0.70;99.90;;;;;;4963936;28;20060;-73
2022/12/05 04:22:48;;;;;;;4.32;1.73;;;-0.80;99.90;;;;;;4892629;29;20028;-73
2022/12/05 04:25:33;;;;;;;2.80;1.70;;;-0.90;99.90;;;;;;4892712;29;20025;-73
2022/12/05 04:27:59;;;;;;;1.80;1.27;;;;;;;;;;4892277;29;20041;-72
2022/12/05 04:30:32;;;;;;;4.47;2.17;;;-1.00;99.90;;;;;;4892581;29;20040;-72
2022/12/05 04:33:16;;;;;;;6.10;2.00;;;-1.10;99.90;;;;;;4892362;29;20409;-73
2022/12/05 04:35:44;;;;;;;2.83;1.63;;;-0.90;99.90;;;;;;4892099;29;20041;-73
2022/12/05 04:38:16;;;;;;;3.58;2.20;;;-1.20;99.90;;;;;;4892400;29;20037;-73
2022/12/05 04:40:50;;;;;;;3.90;2.05;;;-1.20;99.90;;;;;;4877056;29;20044;-72
2022/12/05 04:43:19;;;;;;;5.00;1.10;;;-1.20;99.90;;;;;;4892444;29;20721;-72
2022/12/05 04:45:46;;;;;;;4.40;2.38;;;-1.30;99.90;;;;;;4892106;29;20189;-72
2022/12/05 04:48:15;;;;;;;2.90;1.42;;;-1.30;99.90;;;;;;4892609;29;20112;-73
2022/12/05 04:50:44;;;;;;;3.20;2.58;;;-1.50;99.90;;;;;;4892212;29;20496;-73
2022/12/05 04:53:11;;;;;;;21.05;10.95;;;-1.30;99.90;;;;;;4905304;29;20469;-72
2022/12/05 04:55:41;;;;;;;68.32;14.38;;;-1.30;99.90;;;;;;4932446;29;20107;-72
2022/12/05 04:58:11;;;;;;;130.40;40.33;;;-1.30;99.90;;;;;;4932366;29;20031;-72
2022/12/05 05:01:01;;;;;;;54.13;13.70;;;-1.20;99.90;;;;;;4926514;29;20032;-72
2022/12/05 05:03:44;;;;;;;7.00;2.72;;;-1.10;99.90;;;;;;4932638;29;20688;-73
2022/12/05 05:06:11;;;;;;;39.33;14.13;;;-1.10;99.90;;;;;;4932230;29;20031;-73
2022/12/05 05:08:49;;;;;;;12.02;6.43;;;-1.20;99.90;;;;;;4932311;29;20513;-73
2022/12/05 05:11:21;;;;;;;4.90;2.53;;;-1.20;99.90;;;;;;4931787;29;20413;-73
2022/12/05 05:13:47;;;;;;;2.55;1.88;;;;;;;;;;4932103;29;20078;-72
2022/12/05 05:16:16;;;;;;;1.50;1.38;;;-1.30;99.90;;;;;;4932015;29;20047;-73
2022/12/05 05:18:43;;;;;;;1.42;1.00;;;;;;;;;;4932698;29;20122;-73
2022/12/05 05:21:21;;;;;;;4.28;1.80;;;-1.20;99.90;;;;;;4932038;29;20548;-73
2022/12/05 05:23:47;;;;;;;13.25;4.20;;;;;;;;;;4932154;29;20070;-72
2022/12/05 05:26:14;;;;;;;2.90;2.55;;;-1.30;99.90;;;;;;4934127;29;20224;-73
2022/12/05 05:28:39;;;;;;;5.22;3.47;;;-1.40;99.90;;;;;;4932112;29;20028;-72
2022/12/05 05:31:06;;;;;;;11.95;6.97;;;;;;;;;;4931636;29;20039;-72
2022/12/05 05:33:32;;;;;;;6.88;4.22;;;-1.50;99.90;;;;;;4931673;29;20027;-73
2022/12/05 05:36:16;;;;;;;1.30;1.25;;;-1.40;99.90;;;;;;4931715;29;20031;-73
2022/12/05 05:38:44;;;;;;;3.03;2.30;;;-1.40;99.90;;;;;;4931868;28;20039;-72
2022/12/05 05:41:14;;;;;;;;;;;-1.30;99.90;;;;;;4932014;29;20020;-73
2022/12/05 05:43:40;;;;;;;2.50;2.30;;;-1.10;99.90;;;;;;4931132;29;19911;-73
2022/12/05 05:46:06;;;;;;;3.13;1.77;;;;;;;;;;4931711;29;20023;-73
2022/12/05 05:48:32;;;;;;;1.45;1.33;;;-1.30;99.90;;;;;;4931492;29;20126;-72
2022/12/05 05:50:59;;;;;;;1.42;0.80;;;-1.20;99.90;;;;;;4931658;29;20683;-73
2022/12/05 05:53:24;;;;;;;1.70;1.30;;;-1.10;99.90;;;;;;4931264;29;20048;-73
2022/12/05 05:55:50;;;;;;;3.88;2.10;;;-1.10;99.90;;;;;;4931823;29;20345;-72
2022/12/05 05:58:16;;;;;;;4.28;2.20;;;;;;;;;;4931478;29;20031;-73
2022/12/05 06:00:42;;;;;;;5.05;2.40;;;;;;;;;;4931546;29;20513;-73
2022/12/05 06:03:07;;;;;;;3.17;2.13;;;-1.30;99.90;;;;;;4931517;29;20035;-73
2022/12/05 06:05:33;;;;;;;1.67;1.55;;;;;;;;;;4928543;29;20039;-72
2022/12/05 06:08:00;;;;;;;5.07;2.03;;;;;;;;;;4929972;29;20144;-72
2022/12/05 06:10:28;;;;;;;3.72;2.35;;;;;;;;;;4930938;29;20059;-72
2022/12/05 06:12:54;;;;;;;6.70;1.85;;;;;;;;;;4930947;29;20024;-73
2022/12/05 06:15:20;;;;;;;1.17;1.13;;;;;;;;;;4933663;29;20181;-72
2022/12/05 06:17:46;;;;;;;2.10;1.45;;;-1.20;99.90;;;;;;4933294;29;20103;-72
2022/12/05 06:20:12;;;;;;;5.43;1.83;;;;;;;;;;4928236;29;20028;-76
2022/12/05 06:22:38;;;;;;;4.45;1.40;;;;;;;;;;4934967;29;20055;-76
2022/12/05 06:25:04;;;;;;;6.20;2.85;;;-1.40;99.90;;;;;;4930281;29;20062;-76
2022/12/05 06:27:31;;;;;;;4.88;2.47;;;;;;;;;;4955476;28;20124;-75
2022/12/05 06:29:57;;;;;;;10.13;5.53;;;;;;;;;;4926694;29;20785;-76
2022/12/05 06:32:23;;;;;;;8.20;6.10;;;;;;;;;;4929085;29;20040;-76
2022/12/05 06:34:49;;;;;;;12.95;4.22;;;;;;;;;;4927888;29;20023;-76
2022/12/05 06:37:15;;;;;;;1.58;1.15;;;;;;;;;;4928099;29;20031;-77
2022/12/05 06:39:41;;;;;;;3.22;1.88;;;;;;;;;;4933806;29;20032;-80
2022/12/05 06:42:07;;;;;;;1.52;1.42;;;;;;;;;;4927595;29;20032;-76
2022/12/05 06:44:33;;;;;;;2.25;1.83;;;;;;;;;;4931914;29;20086;-73
2022/12/05 06:46:59;;;;;;;2.35;1.95;;;;;;;;;;4944317;28;20086;-73
2022/12/05 06:49:31;;;;;;;6.57;3.55;;;;;;;;;;4927067;29;20042;-74
2022/12/05 06:51:57;;;;;;;7.88;4.50;;;;;;;;;;4932507;29;20039;-74
2022/12/05 06:54:22;;;;;;;6.05;4.45;;;-1.40;99.90;;;;;;4929910;29;20130;-73
2022/12/05 06:56:48;;;;;;;8.00;3.78;;;;;;;;;;4929588;29;20055;-74
2022/12/05 06:59:14;;;;;;;8.57;2.92;;;-1.30;99.90;;;;;;4930359;29;20536;-74
2022/12/05 07:01:40;;;;;;;4.50;2.05;;;-0.80;99.90;;;;;;4933802;29;20039;-74
2022/12/05 07:04:11;;;;;;;12.30;3.00;;;-1.30;99.90;;;;;;4933766;29;20024;-74
2022/12/05 07:06:37;;;;;;;0.90;0.90;;;-2.20;99.90;;;;;;4948236;29;20035;-74
2022/12/05 07:09:04;;;;;;;5.25;2.22;;;;;;;;;;4933873;29;20016;-74
2022/12/05 07:11:29;;;;;;;2.55;1.55;;;-1.30;99.90;;;;;;4933724;29;20127;-74
2022/12/05 07:13:56;;;;;;;8.43;2.60;;;;;;;;;;4963633;28;20024;-74
2022/12/05 07:16:21;;;;;;;2.55;2.35;;;-1.10;99.90;;;;;;4934144;29;20016;-74
2022/12/05 07:18:47;;;;;;;4.05;3.38;;;-1.40;99.90;;;;;;4941735;29;20024;-74
2022/12/05 07:21:14;;;;;;;18.23;4.00;;;-1.10;99.90;;;;;;4962751;28;20050;-73
2022/12/05 07:23:41;;;;;;;6.53;4.80;;;-1.20;99.90;;;;;;4933098;29;20397;-75
2022/12/05 07:26:09;;;;;;;10.10;5.32;;;-1.20;99.90;;;;;;4933518;29;20031;-76
2022/12/05 07:28:35;;;;;;;4.35;3.70;;;;;;;;;;4932696;29;20039;-75
2022/12/05 07:31:06;;;;;;;5.55;3.08;;;-1.20;99.90;;;;;;4963617;28;20572;-77
2022/12/05 07:33:31;;;;;;;8.35;5.03;;;;;;;;;;4933811;29;20095;-75
2022/12/05 07:36:02;;;;;;;5.60;4.50;;;-1.30;99.90;;;;;;4933577;29;20027;-76
2022/12/05 07:38:28;;;;;;;5.78;4.10;;;;;;;;;;4932863;29;20063;-76
2022/12/05 07:40:53;;;;;;;3.65;3.25;;;-1.10;99.90;;;;;;4932779;29;20039;-75
2022/12/05 07:43:19;;;;;;;3.25;2.95;;;-1.00;99.90;;;;;;4932462;29;20032;-77
2022/12/05 07:45:45;;;;;;;4.60;3.83;;;;;;;;;;4932185;29;20136;-76
2022/12/05 07:48:11;;;;;;;8.45;6.45;;;;;;;;;;4932789;29;20031;-77
2022/12/05 07:50:37;;;;;;;6.43;2.60;;;-0.90;99.90;;;;;;4929495;29;20027;-73
2022/12/05 07:53:03;;;;;;;4.53;2.50;;;;;;;;;;4930581;29;20465;-75
2022/12/05 07:55:29;;;;;;;6.22;3.20;;;;;;;;;;4932919;29;20038;-77
2022/12/05 07:57:55;;;;;;;10.30;4.03;;;-0.90;99.90;;;;;;4930696;29;20038;-76
2022/12/05 08:00:21;;;;;;;8.23;3.50;;;-0.90;99.90;;;;;;4932533;29;20027;-76
2022/12/05 08:02:47;;;;;;;5.00;3.50;;;;;;;;;;4927982;29;20034;-75
2022/12/05 08:05:13;;;;;;;11.95;4.22;;;;;;;;;;4932919;29;20031;-75
2022/12/05 08:07:38;;;;;;;13.15;4.55;;;-0.20;99.90;;;;;;4933846;29;20071;-77
2022/12/05 08:10:05;;;;;;;7.78;4.68;;;;;;;;;;4932130;29;20379;-73
2022/12/05 08:12:31;;;;;;;3.20;3.00;;;;;;;;;;4930417;29;20127;-74
2022/12/05 08:14:57;;;;;;;14.57;7.55;;;;;;;;;;4934394;29;20054;-76
2022/12/05 08:17:23;;;;;;;40.97;19.88;;;;;;;;;;4932117;29;20051;-75
2022/12/05 08:19:49;;;;;;;31.20;13.85;;;;;;;;;;4931191;29;20031;-73
2022/12/05 08:22:15;;;;;;;13.27;7.20;;;;;;;;;;4930986;29;20027;-78
2022/12/05 08:24:41;;;;;;;8.75;5.95;;;;;;;;;;4932132;29;20095;-73
2022/12/05 08:27:06;;;;;;;10.80;5.50;;;-0.30;99.90;;;;;;4931689;29;20031;-76
2022/12/05 08:29:32;;;;;;;11.70;6.78;;;;;;;;;;4937193;29;20043;-74
2022/12/05 08:31:58;;;;;;;8.70;5.80;;;;;;;;;;4932249;29;20038;-74
2022/12/05 08:34:24;;;;;;;14.02;8.23;;;12.70;99.90;;;;;;4931615;29;20569;-73
2022/12/05 08:36:49;;;;;;;13.23;7.85;;;17.30;85.00;;;;;;4965193;28;20127;-74
2022/12/05 08:39:17;;;;;;;12.25;7.40;;;20.40;55.50;;;;;;4931374;29;20039;-72
2022/12/05 08:41:44;;;;;;;8.88;6.25;;;22.80;50.40;;;;;;4931319;29;20039;-78
2022/12/05 08:44:15;;;;;;;19.58;10.90;;;24.30;45.30;;;;;;4931028;29;20042;-76
2022/12/05 08:46:41;;;;;;;32.65;18.50;;;25.30;41.70;;;;;;4931819;29;20047;-74
2022/12/05 08:49:08;;;;;;;22.67;12.43;;;;;;;;;;4931093;29;20040;-74
2022/12/05 08:51:33;;;;;;;22.83;11.20;;;26.40;43.50;;;;;;4931432;29;20039;-75
2022/12/05 08:54:03;;;;;;;16.15;8.95;;;26.80;42.90;;;;;;4931362;29;20473;-75
2022/12/05 08:56:31;;;;;;;16.67;8.75;;;23.70;41.20;;;;;;4931347;29;20032;-78
2022/12/05 08:58:57;;;;;;;18.73;10.80;;;21.10;54.90;;;;;;4931510;29;20074;-76
2022/12/05 09:01:29;;;;;;;21.17;11.20;;;;;;;;;;4931286;29;20456;-76
2022/12/05 09:03:55;;;;;;;17.08;9.68;;;;;;;;;;4931029;29;20032;-79
2022/12/05 09:06:22;;;;;;;13.40;8.73;;;19.60;53.90;;;;;;4931283;29;20083;-78
2022/12/05 09:08:52;;;;;;;20.42;9.35;;;18.30;58.50;;;;;;4931994;29;20028;-75
2022/12/05 09:11:22;;;;;;;15.52;8.27;;;19.30;66.50;;;;;;4931006;29;20039;-74
2022/12/05 09:13:50;;;;;;;11.35;7.90;;;18.60;65.60;;;;;;4930042;29;20489;-77
2022/12/05 09:16:21;;;;;;;15.30;8.75;;;19.40;59.50;;;;;;4930845;29;20016;-77
2022/12/05 09:18:48;;;;;;;10.85;6.38;;;21.00;54.60;;;;;;4930597;29;20083;-77
2022/12/05 09:21:16;;;;;;;9.38;5.05;;;24.10;63.50;;;;;;4930744;29;20020;-77
2022/12/05 09:23:43;;;;;;;8.73;4.97;;;;;;;;;;4930832;29;20078;-75
2022/12/05 09:26:11;;;;;;;10.60;7.10;;;27.10;41.60;;;;;;4929479;29;20015;-77
2022/12/05 09:28:38;;;;;;;14.52;9.27;;;28.10;40.60;;;;;;4931026;29;20103;-77
2022/12/05 09:31:09;;;;;;;8.80;5.40;;;28.40;40.00;;;;;;4930757;29;20032;-76
2022/12/05 09:33:36;;;;;;;7.90;4.88;;;29.50;38.70;;;;;;4930837;29;20027;-77
2022/12/05 09:36:04;;;;;;;4.88;3.78;;;30.40;46.60;;;;;;4930705;29;20035;-77
2022/12/05 09:38:30;;;;;;;6.35;3.97;;;;;;;;;;4930293;29;20039;-78
2022/12/05 09:41:10;;;;;;;6.05;3.42;;;31.50;47.90;;;;;;4927308;29;20023;-76
2022/12/05 09:43:47;;;;;;;5.50;3.53;;;32.20;47.40;;;;;;4930377;29;20039;-79
2022/12/05 09:46:52;;;;;;;4.97;3.25;;;31.60;35.20;;;;;;4930326;29;20557;-78
2022/12/05 09:49:19;;;;;;;3.47;2.78;;;29.60;45.40;;;;;;4929723;28;20039;-79
2022/12/05 09:51:47;;;;;;;3.25;1.92;;;27.20;34.70;;;;;;4930737;29;20054;-78
2022/12/05 09:54:14;;;;;;;2.85;2.00;;;25.30;37.90;;;;;;4930480;29;20084;-78
2022/12/05 09:56:43;;;;;;;2.43;1.60;;;23.00;38.60;;;;;;4930346;29;20050;-77
2022/12/05 09:59:14;;;;;;;2.28;1.77;;;21.70;39.60;;;;;;4930881;29;20098;-77
2022/12/05 10:01:53;;;;;;;3.35;1.55;;;21.20;41.90;;;;;;4929763;29;20482;-78
2022/12/05 10:04:32;;;;;;;2.20;1.77;;;20.90;40.10;;;;;;4930528;29;20032;-78
2022/12/05 10:07:39;;;;;;;3.38;2.30;;;22.10;53.20;;;;;;4929830;29;20063;-76
2022/12/05 10:10:16;;;;;;;3.35;1.95;;;24.10;39.00;;;;;;4929743;29;20023;-79
2022/12/05 10:12:48;;;;;;;5.38;3.47;;;25.10;35.70;;;;;;4930650;29;20040;-77
2022/12/05 10:15:36;;;;;;;2.30;2.00;;;25.70;34.20;;;;;;4927724;29;20091;-74
2022/12/05 10:18:30;;;;;;;3.63;2.30;;;26.40;33.40;;;;;;4929934;29;20126;-76
2022/12/05 10:21:03;;;;;;;3.92;2.83;;;26.60;43.00;;;;;;4907990;29;20029;-76
2022/12/05 10:23:36;;;;;;;3.30;2.22;;;26.70;31.20;;;;;;4908779;29;20394;-77
2022/12/05 10:26:06;;;;;;;4.90;2.95;;;27.70;31.80;;;;;;4908056;29;20064;-76
2022/12/05 10:28:49;;;;;;;2.65;1.90;;;28.70;31.30;;;;;;4908621;29;20036;-76
2022/12/05 10:31:18;;;;;;;2.92;2.47;;;29.00;32.40;;;;;;4910454;29;20059;-73
2022/12/05 10:33:50;;;;;;;3.30;2.40;;;28.90;30.60;;;;;;4908235;29;20170;-75
2022/12/05 10:36:16;;;;;;;3.25;2.55;;;28.80;34.00;;;;;;4911923;29;20032;-75
2022/12/05 10:38:43;;;;;;;4.13;2.47;;;28.90;30.00;;;;;;4912293;29;20054;-76
2022/12/05 10:41:12;;;;;;;2.97;1.90;;;29.50;34.70;;;;;;4912266;29;20115;-75
2022/12/05 10:43:43;;;;;;;3.83;2.05;;;30.00;41.00;;;;;;4911161;29;20038;-76
2022/12/05 10:46:10;;;;;;;3.20;1.90;;;30.80;39.60;;;;;;4914915;29;20059;-77
2022/12/05 10:48:38;;;;;;;3.40;2.10;;;30.70;30.10;;;;;;4916695;29;20028;-78
2022/12/05 10:51:05;;;;;;;3.17;2.28;;;30.80;29.10;;;;;;4911736;29;20040;-77
2022/12/05 10:53:41;;;;;;;3.00;1.98;;;31.00;29.10;;;;;;4911925;29;20071;-77
2022/12/05 10:56:45;;;;;;;3.40;2.55;;;31.30;35.30;;;;;;4912202;29;20618;-78
2022/12/05 10:59:15;;;;;;;3.83;2.50;;;28.60;28.10;;;;;;4932595;29;20437;-76
2022/12/05 11:01:57;;;;;;;5.15;2.08;;;28.80;29.40;;;;;;4933314;29;21155;-75
2022/12/05 11:04:26;;;;;;;2.90;2.10;;;;;;;;;;4948246;28;20416;-75
2022/12/05 11:06:52;;;;;;;3.33;2.30;;;;;;;;;;4933062;29;20036;-74
2022/12/05 11:09:24;;;;;;;3.70;2.40;;;28.80;29.00;;;;;;4947869;29;20446;-75
2022/12/05 11:12:08;;;;;;;3.92;2.22;;;28.70;28.80;;;;;;4933459;29;20051;-75
2022/12/05 11:14:35;;;;;;;3.88;2.40;;;28.60;37.70;;;;;;4932917;29;20039;-74
2022/12/05 11:17:02;;;;;;;3.70;2.33;;;28.90;28.80;;;;;;4934240;29;20031;-74
2022/12/05 11:19:30;;;;;;;7.20;3.17;;;27.80;28.30;;;;;;4934278;28;20453;-75
2022/12/05 11:21:56;;;;;;;2.70;2.08;;;;;;;;;;4947967;28;20043;-74
2022/12/05 11:24:36;;;;;;;3.50;2.63;;;27.10;29.00;;;;;;4932960;29;20034;-74
2022/12/05 11:27:14;;;;;;;4.45;2.38;;;27.00;28.80;;;;;;4932937;29;20035;-75
2022/12/05 11:29:40;;;;;;;3.13;2.13;;;;;;;;;;4932665;29;20059;-75
2022/12/05 11:32:18;;;;;;;4.47;2.78;;;25.30;38.00;;;;;;4933076;29;20065;-76
2022/12/05 11:34:57;;;;;;;2.92;2.15;;;24.80;29.90;;;;;;4933442;29;20031;-78
2022/12/05 11:37:27;;;;;;;4.30;2.42;;;25.00;30.10;;;;;;4932698;29;20035;-78
2022/12/05 11:39:53;;;;;;;4.95;3.15;;;;;;;;;;4930725;29;20028;-79
2022/12/05 11:42:19;;;;;;;6.57;2.55;;;;;;;;;;4932082;29;20059;-75
2022/12/05 11:45:09;;;;;;;3.88;2.10;;;22.40;31.20;;;;;;4931742;29;20059;-76
2022/12/05 11:47:53;;;;;;;3.75;2.53;;;21.60;32.80;;;;;;4931558;29;20027;-76
2022/12/05 11:50:28;;;;;;;3.92;2.67;;;20.80;33.50;;;;;;4932341;29;20091;-76
2022/12/05 11:53:28;;;;;;;2.33;2.08;;;20.10;33.90;;;;;;4932207;29;20070;-76
2022/12/05 11:56:02;;;;;;;4.78;2.95;;;19.10;49.70;;;;;;4931777;29;20031;-76
2022/12/05 11:58:42;;;;;;;3.95;2.33;;;17.80;39.10;;;;;;4933010;29;20063;-76
2022/12/05 12:01:24;;;;;;;3.45;2.60;;;17.20;51.10;;;;;;4931377;29;20039;-76
2022/12/05 12:04:01;;;;;;;3.05;2.50;;;16.90;42.60;;;;;;4932519;29;20035;-76
2022/12/05 12:07:05;;;;;;;3.95;2.75;;;16.40;52.50;;;;;;4931994;29;20039;-76
2022/12/05 12:09:55;;;;;;;3.30;2.40;;;15.70;51.00;;;;;;4931518;29;20035;-76
2022/12/05 12:12:41;;;;;;;2.70;2.20;;;15.50;56.10;;;;;;4923628;29;20028;-76
2022/12/05 12:15:16;;;;;;;2.78;2.15;;;14.70;49.10;;;;;;4931752;29;20038;-76
2022/12/05 12:17:41;;;;;;;3.10;2.58;;;14.40;50.00;;;;;;4931690;29;20106;-77
2022/12/05 12:20:35;;;;;;;3.53;2.65;;;14.80;47.50;;;;;;4933334;29;20111;-77
2022/12/05 12:23:14;;;;;;;2.90;2.28;;;14.60;43.50;;;;;;4929925;28;20465;-76
2022/12/05 12:26:05;;;;;;;2.83;2.28;;;14.10;51.50;;;;;;4931945;29;20592;-76
2022/12/05 12:28:34;;;;;;;4.13;2.45;;;;;;;;;;4931927;29;20059;-77
2022/12/05 12:31:11;;;;;;;3.30;2.35;;;14.60;59.30;;;;;;4931722;29;20052;-78
2022/12/05 12:33:56;;;;;;;4.18;2.40;;;14.20;43.90;;;;;;4932011;29;20453;-78
2022/12/05 12:36:34;;;;;;;2.88;2.17;;;13.90;44.00;;;;;;4927840;29;20515;-74
2022/12/05 12:39:19;;;;;;;3.10;2.80;;;13.80;44.30;;;;;;4931428;29;20043;-77
2022/12/05 12:41:59;;;;;;;3.60;2.50;;;13.80;44.60;;;;;;4931479;29;20044;-77
2022/12/05 12:44:51;;;;;;;3.95;2.45;;;13.60;44.70;;;;;;4930835;29;20525;-77
2022/12/05 12:47:25;;;;;;;3.58;3.08;;;13.40;45.20;;;;;;4931445;29;20698;-76
2022/12/05 12:50:20;;;;;;;2.50;2.30;;;13.20;61.20;;;;;;4931542;29;20516;-73
2022/12/05 12:52:46;;;;;;;2.72;1.75;;;;;;;;;;4931035;29;20509;-76
2022/12/05 12:55:33;;;;;;;3.05;2.40;;;13.10;46.20;;;;;;4931234;29;20031;-77
2022/12/05 12:58:35;;;;;;;2.05;1.90;;;13.00;61.80;;;;;;4931024;29;20028;-76
2022/12/05 13:01:20;;;;;;;3.03;2.75;;;13.10;53.00;;;;;;4931117;29;20075;-77
2022/12/05 13:03:52;;;;;;;19.88;5.35;;;13.30;58.20;;;;;;4931549;29;20059;-77
2022/12/05 13:06:34;;;;;;;9.95;4.00;;;12.90;46.50;;;;;;4931065;29;20024;-77
2022/12/05 13:09:13;;;;;;;4.70;3.35;;;12.50;46.60;;;;;;4931317;29;20038;-78
2022/12/05 13:11:42;;;;;;;5.72;2.83;;;12.60;62.70;;;;;;4929820;29;20115;-77
2022/12/05 13:14:12;;;;;;;4.78;2.88;;;12.60;47.00;;;;;;4932732;29;20079;-77
2022/12/05 13:16:47;;;;;;;4.57;2.70;;;12.60;53.10;;;;;;4931090;29;20034;-78
2022/12/05 13:19:27;;;;;;;3.30;3.05;;;12.60;47.70;;;;;;4929656;29;20024;-79
2022/12/05 13:21:55;;;;;;;6.03;3.10;;;12.30;49.80;;;;;;4930386;29;20110;-78
2022/12/05 13:24:25;;;;;;;3.28;2.08;;;12.50;49.70;;;;;;4931204;29;20760;-78
2022/12/05 13:26:51;;;;;;;4.22;2.78;;;;;;;;;;4931171;29;20083;-78
2022/12/05 13:29:28;;;;;;;1.98;1.70;;;12.40;48.80;;;;;;4930425;29;20023;-83
2022/12/05 13:31:54;;;;;;;3.45;2.22;;;;;;;;;;4930826;29;20039;-78
2022/12/05 13:34:27;;;;;;;2.60;1.70;;;12.80;54.80;;;;;;4931105;29;20039;-80
2022/12/05 13:42:28;;;;;;;3.42;1.90;;;12.50;61.20;;;;;;4930115;29;20090;-76
2022/12/05 13:45:02;;;;;;;3.22;1.60;;;12.30;49.20;;;;;;4930193;29;20026;-77